Argyle Township, Maine
Current Conditions -  °F | °C
As of 2:53 AM on Monday 26 Jan 2015 (Local Time) from KBGR Reporting Station
Clear Clear  
Wind Chill: -23°   Ceiling: Unl
Heat Index: -16°   Visibility: 10mi
Dew Point: -21°   Wind: 8mph
Humidity: 64%   Direction: 290°WNW
Pressure: 30.06"   Gusts: NA
Location:  45.0236°N, 68.7394°W
Report Text: KBGR 260753Z 29007KT 10SM CLR M16/M21 A3006 RMK AO2 SLP183 T11561211
Loading
Personal Weather Stations






























Interactive Weather Map New forecast layout! Learn more

10-Day Weather Forecast

Advertisements
Track Severe Weather on mobile